createdAt,value
2023-04-05T00:00:49.098Z,31.86
2023-04-05T00:01:49.137Z,32.15
2023-04-05T00:02:49.390Z,31.95
2023-04-05T00:03:49.299Z,32.06
2023-04-05T00:04:49.272Z,31.96
2023-04-05T00:05:49.326Z,31.74
2023-04-05T00:06:49.271Z,31.89
2023-04-05T00:07:49.371Z,32.07
2023-04-05T00:08:49.323Z,32.39
2023-04-05T00:09:49.399Z,31.93
2023-04-05T00:10:49.441Z,31.79
2023-04-05T00:11:49.493Z,31.88
2023-04-05T00:12:49.442Z,32.21
2023-04-05T00:13:49.516Z,32.77
2023-04-05T00:14:49.590Z,32.81
2023-04-05T00:15:49.678Z,32.95
2023-04-05T00:16:49.805Z,32.99
2023-04-05T00:17:49.854Z,32.45
2023-04-05T00:18:49.910Z,31.81
2023-04-05T00:19:49.794Z,31.98
2023-04-05T00:20:49.950Z,31.68
2023-04-05T00:21:49.995Z,31.76
2023-04-05T00:22:49.957Z,31.55
2023-04-05T00:23:49.950Z,31.22
2023-04-05T00:24:50.011Z,31.37
2023-04-05T00:25:50.037Z,30.80
2023-04-05T00:26:50.036Z,30.51
2023-04-05T00:27:49.991Z,30.31
2023-04-05T00:28:49.972Z,30.81
2023-04-05T00:29:50.054Z,30.46
2023-04-05T00:30:50.046Z,30.42
2023-04-05T00:31:50.202Z,30.34
2023-04-05T00:32:50.089Z,30.12
2023-04-05T00:33:49.959Z,30.01
2023-04-05T00:34:49.949Z,30.36
2023-04-05T00:35:50.050Z,30.79
2023-04-05T00:36:49.957Z,30.77
2023-04-05T00:37:49.928Z,31.20
2023-04-05T00:38:50.008Z,31.33
2023-04-05T00:39:49.944Z,31.65
2023-04-05T00:40:49.972Z,31.24
2023-04-05T00:41:50.049Z,31.11
2023-04-05T00:42:50.104Z,31.16
2023-04-05T00:43:50.166Z,30.95
2023-04-05T00:44:50.160Z,30.79
2023-04-05T00:45:50.214Z,30.63
2023-04-05T00:46:50.236Z,30.60
2023-04-05T00:47:50.186Z,30.44
2023-04-05T00:48:50.120Z,30.66
2023-04-05T00:49:50.162Z,30.51
2023-04-05T00:50:50.472Z,30.77
2023-04-05T00:51:50.122Z,31.02
2023-04-05T00:52:50.126Z,30.72
2023-04-05T00:53:50.185Z,31.00
2023-04-05T00:54:50.251Z,31.12
2023-04-05T00:55:50.344Z,30.84
2023-04-05T00:56:50.398Z,30.97
2023-04-05T00:57:50.404Z,30.67
2023-04-05T00:58:50.390Z,30.66
2023-04-05T00:59:50.385Z,30.64
2023-04-05T01:00:50.476Z,30.61
2023-04-05T01:01:50.384Z,30.58
2023-04-05T01:02:50.530Z,31.02
2023-04-05T01:03:50.431Z,31.40
2023-04-05T01:04:50.508Z,31.70
2023-04-05T01:05:50.414Z,31.87
2023-04-05T01:06:50.410Z,32.12
2023-04-05T01:07:50.495Z,32.10
2023-04-05T01:08:50.456Z,32.46
2023-04-05T01:09:50.447Z,32.85
2023-04-05T01:10:50.405Z,32.84
2023-04-05T01:11:50.463Z,32.88
2023-04-05T01:12:50.345Z,33.88
2023-04-05T01:13:50.339Z,34.24
2023-04-05T01:14:50.443Z,34.43
2023-04-05T01:15:50.490Z,34.83
2023-04-05T01:16:50.448Z,34.41
2023-04-05T01:17:50.580Z,34.04
2023-04-05T01:18:50.610Z,34.00
2023-04-05T01:19:51.260Z,34.13
2023-04-05T01:20:50.715Z,34.38
2023-04-05T01:21:50.735Z,33.94
2023-04-05T01:22:50.696Z,33.82
2023-04-05T01:23:50.695Z,34.34
2023-04-05T01:24:50.684Z,33.99
2023-04-05T01:25:50.683Z,33.70
2023-04-05T01:26:50.760Z,33.44
2023-04-05T01:27:50.678Z,33.12
2023-04-05T01:28:50.739Z,33.23
2023-04-05T01:29:50.736Z,33.11
2023-04-05T01:30:50.713Z,33.17
2023-04-05T01:31:50.810Z,33.07
2023-04-05T01:32:50.816Z,32.59
2023-04-05T01:33:50.904Z,32.48
2023-04-05T01:34:50.937Z,32.82
2023-04-05T01:35:50.991Z,32.65
2023-04-05T01:36:50.983Z,32.74
2023-04-05T01:37:50.994Z,32.51
2023-04-05T01:38:51.094Z,32.45
2023-04-05T01:39:51.143Z,32.39
2023-04-05T01:40:51.069Z,32.82
2023-04-05T01:41:51.821Z,33.07
2023-04-05T01:42:51.181Z,33.44
2023-04-05T01:43:51.247Z,33.51
2023-04-05T01:44:51.209Z,34.49
2023-04-05T01:45:51.165Z,34.87
2023-04-05T01:46:51.205Z,35.04
2023-04-05T01:47:51.155Z,34.96
2023-04-05T01:48:51.144Z,34.70
2023-04-05T01:49:51.239Z,34.59
2023-04-05T01:50:51.135Z,34.84
2023-04-05T01:51:51.138Z,35.44
2023-04-05T01:52:51.171Z,35.57
2023-04-05T01:53:51.152Z,35.39
2023-04-05T01:54:51.160Z,36.06
2023-04-05T01:55:51.102Z,35.36
2023-04-05T01:56:51.125Z,35.62
2023-04-05T01:57:51.186Z,36.10
2023-04-05T01:58:51.199Z,35.67
2023-04-05T01:59:51.163Z,35.49
2023-04-05T02:00:51.335Z,35.25
2023-04-05T02:01:51.284Z,35.53
2023-04-05T02:02:51.291Z,35.76
2023-04-05T02:03:51.464Z,36.26
2023-04-05T02:04:51.451Z,36.03
2023-04-05T02:05:51.364Z,36.10
2023-04-05T02:06:51.368Z,35.99
2023-04-05T02:07:51.445Z,36.38
2023-04-05T02:08:51.421Z,36.17
2023-04-05T02:09:51.375Z,35.91
2023-04-05T02:10:51.360Z,35.67
2023-04-05T02:11:51.440Z,34.63
2023-04-05T02:12:51.406Z,34.42
2023-04-05T02:13:51.335Z,34.21
2023-04-05T02:14:51.403Z,34.92
2023-04-05T02:15:51.403Z,34.18
2023-04-05T02:16:52.258Z,34.43
2023-04-05T02:17:51.421Z,34.44
2023-04-05T02:18:51.491Z,35.03
2023-04-05T02:19:51.393Z,34.81
2023-04-05T02:20:51.507Z,34.83
2023-04-05T02:21:52.693Z,34.74
2023-04-05T02:22:51.628Z,35.42
2023-04-05T02:23:51.772Z,35.63
2023-04-05T02:24:51.950Z,35.80
2023-04-05T02:25:51.810Z,36.19
2023-04-05T02:26:51.897Z,36.64
2023-04-05T02:27:51.806Z,36.91
2023-04-05T02:28:52.013Z,37.00
2023-04-05T02:29:51.875Z,36.33
2023-04-05T02:30:51.842Z,36.44
2023-04-05T02:31:51.815Z,37.17
2023-04-05T02:32:51.777Z,37.24
2023-04-05T02:33:51.783Z,36.98
2023-04-05T02:34:51.860Z,36.66
2023-04-05T02:35:51.903Z,36.78
2023-04-05T02:36:51.869Z,37.08
2023-04-05T02:37:51.746Z,36.73
2023-04-05T02:38:51.754Z,36.95
2023-04-05T02:39:52.131Z,36.84
2023-04-05T02:40:51.865Z,36.72
2023-04-05T02:41:52.002Z,37.12
2023-04-05T02:42:51.944Z,36.77
2023-04-05T02:43:52.025Z,36.29
2023-04-05T02:44:52.076Z,36.33
2023-04-05T02:45:52.208Z,36.43
2023-04-05T02:46:52.353Z,36.81
2023-04-05T02:47:52.325Z,36.51
2023-04-05T02:48:52.379Z,36.76
2023-04-05T02:49:52.487Z,36.65
2023-04-05T02:50:52.482Z,36.86
2023-04-05T02:51:52.657Z,36.46
2023-04-05T02:52:52.655Z,36.63
2023-04-05T02:53:52.726Z,36.36
2023-04-05T02:54:52.779Z,35.79
2023-04-05T02:55:52.735Z,35.73
2023-04-05T02:56:52.745Z,36.39
2023-04-05T02:57:52.679Z,36.34
2023-04-05T02:58:52.806Z,36.87
2023-04-05T02:59:52.691Z,37.06
2023-04-05T03:00:52.794Z,36.63
2023-04-05T03:01:52.708Z,36.90
2023-04-05T03:02:52.723Z,37.02
2023-04-05T03:03:52.851Z,37.43
2023-04-05T03:04:52.796Z,37.26
2023-04-05T03:05:52.816Z,37.74
2023-04-05T03:06:52.883Z,37.91
2023-04-05T03:07:52.946Z,37.92
2023-04-05T03:08:52.954Z,38.19
2023-04-05T03:09:52.943Z,38.39
2023-04-05T03:10:52.983Z,38.16
2023-04-05T03:11:52.916Z,37.89
2023-04-05T03:12:54.026Z,37.80
2023-04-05T03:13:52.925Z,37.52
2023-04-05T03:14:52.899Z,37.27
2023-04-05T03:15:52.979Z,37.39
2023-04-05T03:16:52.975Z,37.72
2023-04-05T03:17:52.945Z,37.46
2023-04-05T03:18:52.994Z,37.21
2023-04-05T03:19:52.970Z,36.76
2023-04-05T03:20:53.061Z,36.96
2023-04-05T03:21:52.979Z,36.78
2023-04-05T03:22:53.040Z,36.84
2023-04-05T03:23:53.215Z,36.42
2023-04-05T03:24:53.341Z,36.96
2023-04-05T03:25:53.249Z,36.77
2023-04-05T03:26:53.461Z,37.45
2023-04-05T03:27:53.371Z,37.65
2023-04-05T03:28:53.413Z,37.75
2023-04-05T03:29:53.281Z,37.35
2023-04-05T03:30:53.391Z,37.37
2023-04-05T03:31:53.524Z,37.16
2023-04-05T03:32:53.395Z,36.70
2023-04-05T03:33:53.350Z,36.52
2023-04-05T03:34:53.297Z,37.09
2023-04-05T03:35:53.306Z,37.60
2023-04-05T03:36:53.357Z,37.25
2023-04-05T03:37:53.249Z,37.91
2023-04-05T03:38:53.297Z,37.33
2023-04-05T03:39:53.269Z,36.54
2023-04-05T03:40:53.757Z,36.26
2023-04-05T03:41:53.370Z,36.03
2023-04-05T03:42:53.225Z,36.54
2023-04-05T03:43:53.258Z,36.12
2023-04-05T03:44:53.282Z,36.29
2023-04-05T03:45:53.309Z,36.05
2023-04-05T03:46:53.205Z,35.98
2023-04-05T03:47:53.281Z,35.71
2023-04-05T03:48:53.260Z,35.51
2023-04-05T03:49:53.312Z,35.27
2023-04-05T03:50:53.419Z,35.13
2023-04-05T03:51:53.452Z,35.06
2023-04-05T03:52:53.559Z,35.37
2023-04-05T03:53:53.561Z,35.42
2023-04-05T03:54:53.608Z,35.30
2023-04-05T03:55:53.673Z,35.25
2023-04-05T03:56:53.725Z,35.05
2023-04-05T03:57:53.746Z,34.91
2023-04-05T03:58:53.902Z,35.09
2023-04-05T03:59:53.769Z,35.30
2023-04-05T04:00:53.794Z,35.12
2023-04-05T04:01:53.809Z,34.96
2023-04-05T04:02:55.326Z,35.14
2023-04-05T04:03:54.266Z,35.97
2023-04-05T04:04:53.829Z,36.10
2023-04-05T04:05:53.755Z,36.57
2023-04-05T04:06:53.762Z,36.27
2023-04-05T04:07:54.667Z,36.19
2023-04-05T04:08:53.691Z,36.97
2023-04-05T04:09:53.705Z,36.97
2023-04-05T04:10:53.703Z,37.60
2023-04-05T04:11:53.787Z,37.65
2023-04-05T04:12:53.845Z,37.63
2023-04-05T04:13:53.819Z,38.02
2023-04-05T04:14:53.883Z,37.84
2023-04-05T04:15:53.911Z,37.73
2023-04-05T04:16:53.952Z,38.27
2023-04-05T04:17:53.950Z,38.11
2023-04-05T04:18:53.991Z,38.80
2023-04-05T04:19:53.970Z,39.18
2023-04-05T04:20:54.025Z,38.62
2023-04-05T04:21:54.132Z,39.28
2023-04-05T04:22:54.220Z,39.67
2023-04-05T04:23:54.145Z,39.78
2023-04-05T04:24:54.083Z,39.47
2023-04-05T04:25:55.114Z,39.80
2023-04-05T04:26:54.176Z,40.03
2023-04-05T04:27:55.693Z,39.64
2023-04-05T04:28:54.043Z,40.05
2023-04-05T04:29:54.036Z,40.07
2023-04-05T04:30:54.096Z,40.23
2023-04-05T04:31:54.073Z,40.18
2023-04-05T04:32:54.138Z,39.80
2023-04-05T04:33:54.081Z,39.68
2023-04-05T04:34:54.125Z,39.91
2023-04-05T04:35:54.117Z,39.55
2023-04-05T04:36:54.141Z,39.01
2023-04-05T04:37:54.012Z,38.50
2023-04-05T04:38:53.997Z,38.25
2023-04-05T04:39:53.975Z,38.43
2023-04-05T04:40:54.010Z,37.55
2023-04-05T04:41:54.041Z,37.04
2023-04-05T04:42:53.993Z,36.81
2023-04-05T04:43:54.024Z,37.13
2023-04-05T04:44:53.998Z,37.39
2023-04-05T04:45:54.005Z,38.26
2023-04-05T04:46:53.996Z,38.50
2023-04-05T04:47:54.788Z,38.96
2023-04-05T04:48:53.980Z,39.46
2023-04-05T04:49:53.975Z,39.54
2023-04-05T04:50:54.086Z,39.77
2023-04-05T04:51:53.942Z,39.93
2023-04-05T04:52:54.027Z,40.12
2023-04-05T04:53:53.900Z,40.13
2023-04-05T04:54:53.902Z,39.27
2023-04-05T04:55:53.945Z,38.61
2023-04-05T04:56:53.852Z,38.14
2023-04-05T04:57:53.961Z,37.85
2023-04-05T04:58:53.965Z,37.46
2023-04-05T04:59:53.854Z,38.10
2023-04-05T05:02:13.837Z,37.74
2023-04-05T05:03:14.410Z,38.42
2023-04-05T05:04:13.818Z,37.90
2023-04-05T05:05:13.820Z,37.60
2023-04-05T05:06:13.820Z,37.25
2023-04-05T05:07:13.743Z,36.98
2023-04-05T05:08:13.811Z,36.81
2023-04-05T05:09:13.770Z,36.31
2023-04-05T05:10:13.753Z,35.95
2023-04-05T05:11:14.683Z,36.11
2023-04-05T05:12:13.779Z,36.23
2023-04-05T05:13:13.802Z,36.02
2023-04-05T05:14:13.705Z,36.05
2023-04-05T05:15:13.752Z,35.73
2023-04-05T05:16:13.791Z,36.22
2023-04-05T05:17:13.824Z,36.38
2023-04-05T05:18:13.692Z,36.45
2023-04-05T05:19:13.682Z,36.27
2023-04-05T05:20:13.726Z,36.20
2023-04-05T05:21:13.746Z,36.07
2023-04-05T05:22:13.671Z,36.26
2023-04-05T05:23:13.732Z,36.21
2023-04-05T05:24:13.743Z,36.08
2023-04-05T05:25:13.674Z,36.13
2023-04-05T05:26:13.627Z,35.82
2023-04-05T05:27:13.749Z,35.73
2023-04-05T05:28:13.663Z,35.56
2023-04-05T05:29:13.696Z,35.50
2023-04-05T05:30:13.595Z,35.44
2023-04-05T05:31:13.728Z,35.46
2023-04-05T05:32:14.230Z,35.34
2023-04-05T05:33:13.690Z,35.30
2023-04-05T05:34:13.701Z,35.53
2023-04-05T05:35:13.540Z,35.35
2023-04-05T05:36:14.163Z,35.29
2023-04-05T05:37:13.834Z,35.12
2023-04-05T05:38:14.114Z,35.14
2023-04-05T05:39:13.750Z,35.00
2023-04-05T05:40:13.737Z,34.97
2023-04-05T05:41:13.772Z,34.78
2023-04-05T05:42:13.819Z,35.06
2023-04-05T05:43:13.694Z,35.28
2023-04-05T05:44:13.774Z,34.80
2023-04-05T05:45:13.759Z,34.57
2023-04-05T05:46:21.894Z,34.80
2023-04-05T05:47:13.700Z,34.50
2023-04-05T05:48:14.005Z,34.50
2023-04-05T05:49:13.645Z,35.11
2023-04-05T05:50:13.610Z,35.37
2023-04-05T05:51:13.626Z,34.94
2023-04-05T05:52:13.766Z,34.92
2023-04-05T05:53:13.726Z,34.99
2023-04-05T05:54:13.811Z,34.98
2023-04-05T05:55:13.760Z,34.81
2023-04-05T05:56:13.838Z,34.59
2023-04-05T05:57:13.843Z,34.32
2023-04-05T05:58:13.864Z,34.22
2023-04-05T05:59:13.906Z,34.44
2023-04-05T06:00:13.819Z,34.08
2023-04-05T06:01:13.869Z,33.90
2023-04-05T06:02:13.974Z,33.92
2023-04-05T06:03:13.986Z,33.68
2023-04-05T06:04:14.059Z,33.80
2023-04-05T06:05:13.934Z,33.86
2023-04-05T06:06:13.993Z,33.43
2023-04-05T06:07:14.405Z,33.49
2023-04-05T06:08:14.106Z,34.57
2023-04-05T06:09:14.075Z,34.30
2023-04-05T06:10:14.093Z,33.91
2023-04-05T06:11:14.088Z,33.76
2023-04-05T06:12:14.169Z,33.64
2023-04-05T06:13:14.148Z,33.61
2023-04-05T06:14:14.266Z,33.67
2023-04-05T06:15:14.230Z,34.02
2023-04-05T06:16:14.369Z,34.18
2023-04-05T06:17:14.387Z,34.20
2023-04-05T06:18:14.384Z,33.94
2023-04-05T06:19:14.403Z,33.81
2023-04-05T06:20:14.415Z,33.72
2023-04-05T06:21:14.476Z,33.59
2023-04-05T06:22:14.576Z,33.54
2023-04-05T06:23:14.630Z,33.26
2023-04-05T06:24:14.664Z,32.98
2023-04-05T06:25:15.922Z,32.95
2023-04-05T06:26:14.675Z,32.77
2023-04-05T06:27:14.979Z,33.05
2023-04-05T06:28:14.679Z,33.03
2023-04-05T06:29:14.634Z,32.95
2023-04-05T06:30:14.686Z,33.09
2023-04-05T06:31:14.740Z,33.24
2023-04-05T06:32:14.615Z,32.74
2023-04-05T06:33:14.646Z,32.89
2023-04-05T06:34:14.636Z,33.05
2023-04-05T06:35:14.628Z,33.77
2023-04-05T06:36:14.614Z,33.71
2023-04-05T06:37:14.570Z,34.31
2023-04-05T06:38:14.637Z,34.51
2023-04-05T06:39:14.588Z,34.46
2023-04-05T06:40:14.554Z,33.68
2023-04-05T06:41:14.638Z,33.49
2023-04-05T06:42:14.582Z,33.38
2023-04-05T06:43:14.631Z,33.35
2023-04-05T06:44:14.516Z,33.06
2023-04-05T06:45:14.534Z,33.95
2023-04-05T06:46:14.620Z,34.33
2023-04-05T06:47:14.836Z,34.77
2023-04-05T06:48:14.541Z,34.86
2023-04-05T06:49:14.555Z,34.48
2023-04-05T06:50:14.469Z,34.07
2023-04-05T06:51:14.615Z,33.11
2023-04-05T06:52:14.527Z,32.57
2023-04-05T06:53:14.540Z,32.42
2023-04-05T06:54:14.517Z,31.84
2023-04-05T06:55:14.561Z,32.16
2023-04-05T06:56:14.559Z,31.92
2023-04-05T06:57:14.508Z,31.88
2023-04-05T06:58:14.468Z,31.67
2023-04-05T06:59:14.496Z,31.86
2023-04-05T07:00:14.456Z,31.57
2023-04-05T07:01:14.786Z,31.27
2023-04-05T07:02:14.817Z,31.11
2023-04-05T07:03:14.506Z,31.18
2023-04-05T07:04:14.525Z,30.83
2023-04-05T07:05:14.479Z,30.91
2023-04-05T07:06:14.424Z,30.70
2023-04-05T07:07:14.428Z,31.70
2023-04-05T07:08:14.430Z,31.55
2023-04-05T07:09:14.429Z,31.48
2023-04-05T07:10:14.364Z,31.24
2023-04-05T07:11:14.359Z,30.99
2023-04-05T07:12:14.430Z,31.00
2023-04-05T07:13:14.466Z,30.94
2023-04-05T07:14:14.372Z,31.22
2023-04-05T07:15:14.323Z,30.85
2023-04-05T07:16:14.419Z,30.58
2023-04-05T07:17:14.440Z,30.30
2023-04-05T07:18:14.744Z,29.97
2023-04-05T07:19:14.512Z,31.02
2023-04-05T07:20:14.615Z,30.58
2023-04-05T07:21:14.645Z,31.14
2023-04-05T07:22:14.632Z,32.03
2023-04-05T07:23:14.657Z,32.14
2023-04-05T07:24:14.661Z,31.63
2023-04-05T07:25:14.645Z,32.46
2023-04-05T07:26:14.672Z,32.87
2023-04-05T07:27:14.687Z,32.99
2023-04-05T07:28:14.743Z,31.99
2023-04-05T07:29:14.783Z,31.36
2023-04-05T07:30:14.843Z,31.06
2023-04-05T07:31:14.818Z,30.61
2023-04-05T07:32:15.002Z,30.21
2023-04-05T07:33:15.033Z,30.18
2023-04-05T07:34:14.916Z,30.18
2023-04-05T07:35:15.024Z,29.93
2023-04-05T07:36:15.095Z,29.71
2023-04-05T07:37:15.064Z,29.43
2023-04-05T07:38:15.059Z,28.86
2023-04-05T07:39:15.083Z,29.16
2023-04-05T07:40:15.156Z,29.06
2023-04-05T07:41:15.162Z,29.73
2023-04-05T07:42:15.226Z,29.88
2023-04-05T07:43:15.208Z,29.12
2023-04-05T07:44:15.231Z,29.10
2023-04-05T07:45:15.252Z,29.28
2023-04-05T07:46:15.418Z,28.70
2023-04-05T07:47:15.437Z,28.26
2023-04-05T07:48:15.457Z,29.01
2023-04-05T07:49:15.447Z,28.80
2023-04-05T07:50:15.641Z,28.81
2023-04-05T07:51:15.495Z,30.09
2023-04-05T07:52:15.573Z,30.14
2023-04-05T07:53:15.656Z,30.43
2023-04-05T07:54:15.569Z,30.09
2023-04-05T07:55:15.586Z,29.68
2023-04-05T07:56:15.586Z,29.50
2023-04-05T07:57:15.591Z,29.69
2023-04-05T07:58:15.677Z,29.15
2023-04-05T07:59:15.682Z,28.74
2023-04-05T08:00:15.674Z,28.78
2023-04-05T08:01:15.976Z,29.01
2023-04-05T08:02:15.740Z,28.85
2023-04-05T08:03:15.891Z,29.02
2023-04-05T08:04:15.823Z,29.49
2023-04-05T08:05:16.238Z,30.13
2023-04-05T08:06:15.873Z,29.96
2023-04-05T08:07:15.891Z,29.47
2023-04-05T08:08:16.066Z,29.31
2023-04-05T08:09:15.929Z,28.32
2023-04-05T08:10:15.930Z,28.14
2023-04-05T08:11:15.884Z,27.90
2023-04-05T08:12:15.997Z,27.27
2023-04-05T08:13:16.048Z,27.35
2023-04-05T08:14:16.194Z,27.12
2023-04-05T08:15:16.151Z,26.98
2023-04-05T08:16:16.182Z,27.60
2023-04-05T08:17:16.102Z,27.28
2023-04-05T08:18:16.152Z,26.99
2023-04-05T08:19:16.099Z,26.86
2023-04-05T08:20:16.108Z,26.98
2023-04-05T08:21:16.129Z,26.47
2023-04-05T08:22:16.114Z,26.19
2023-04-05T08:23:16.083Z,25.80
2023-04-05T08:24:16.126Z,25.82
2023-04-05T08:25:16.059Z,25.79
2023-04-05T08:26:16.089Z,25.79
2023-04-05T08:27:16.103Z,26.00
2023-04-05T08:28:16.094Z,26.30
2023-04-05T08:29:16.116Z,25.90
2023-04-05T08:30:16.203Z,25.67
2023-04-05T08:31:16.254Z,25.53
2023-04-05T08:32:16.249Z,25.81
2023-04-05T08:33:16.319Z,25.96
2023-04-05T08:34:16.594Z,26.35
2023-04-05T08:35:16.339Z,26.23
2023-04-05T08:36:16.338Z,26.43
2023-04-05T08:37:16.393Z,27.22
2023-04-05T08:38:16.744Z,27.33
2023-04-05T08:39:16.413Z,27.28
2023-04-05T08:40:16.497Z,27.02
2023-04-05T08:41:16.532Z,27.30
2023-04-05T08:42:16.567Z,27.27
2023-04-05T08:43:17.914Z,27.26
2023-04-05T08:44:16.566Z,26.98
2023-04-05T08:45:16.588Z,27.20
2023-04-05T08:46:16.666Z,27.53
2023-04-05T08:47:16.587Z,27.58
2023-04-05T08:48:16.613Z,28.10
2023-04-05T08:49:16.547Z,27.40
2023-04-05T08:50:16.583Z,26.80
2023-04-05T08:51:16.560Z,26.40
2023-04-05T08:52:16.518Z,26.12
2023-04-05T08:53:16.566Z,26.04
2023-04-05T08:54:16.550Z,26.18
2023-04-05T08:55:16.518Z,26.41
2023-04-05T08:56:16.525Z,25.78
2023-04-05T08:57:16.545Z,25.69
2023-04-05T08:58:16.569Z,25.76
2023-04-05T08:59:16.535Z,25.37
2023-04-05T09:00:16.487Z,25.84
2023-04-05T09:01:16.880Z,25.92
2023-04-05T09:02:16.532Z,25.74
2023-04-05T09:03:16.570Z,26.32
2023-04-05T09:04:16.509Z,26.41
2023-04-05T09:05:16.496Z,24.83
2023-04-05T09:06:16.475Z,25.13
2023-04-05T09:07:16.458Z,24.87
2023-04-05T09:08:16.448Z,24.68
2023-04-05T09:09:16.475Z,24.56
2023-04-05T09:10:16.427Z,24.81
2023-04-05T09:11:16.628Z,24.98
2023-04-05T09:12:16.847Z,24.58
2023-04-05T09:13:16.443Z,23.79
2023-04-05T09:14:16.459Z,23.68
2023-04-05T09:15:16.382Z,23.43
2023-04-05T09:16:16.444Z,23.36
2023-04-05T09:17:16.418Z,23.54
2023-04-05T09:18:26.144Z,23.64
2023-04-05T09:19:17.437Z,23.64
2023-04-05T09:20:16.375Z,24.56
2023-04-05T09:21:16.355Z,24.29
2023-04-05T09:22:16.324Z,24.10
2023-04-05T09:23:16.470Z,23.81
2023-04-05T09:24:16.384Z,23.77
2023-04-05T09:25:16.328Z,23.57
2023-04-05T09:26:16.304Z,23.73
2023-04-05T09:27:16.316Z,23.84
2023-04-05T09:28:16.334Z,24.28
2023-04-05T09:29:16.347Z,24.28
2023-04-05T09:30:16.277Z,24.14
2023-04-05T09:31:16.270Z,24.24
2023-04-05T09:32:16.300Z,24.09
2023-04-05T09:33:16.277Z,23.93
2023-04-05T09:34:16.616Z,23.87
2023-04-05T09:35:16.344Z,24.34
2023-04-05T09:36:16.395Z,24.10
2023-04-05T09:37:16.441Z,24.27
2023-04-05T09:38:16.444Z,24.13
2023-04-05T09:39:16.819Z,23.95
2023-04-05T09:40:16.486Z,23.71
2023-04-05T09:41:16.590Z,24.50
2023-04-05T09:42:16.565Z,25.02
2023-04-05T09:43:16.612Z,24.91
2023-04-05T09:44:16.558Z,24.62
2023-04-05T09:45:16.575Z,24.20
2023-04-05T09:46:16.623Z,23.70
2023-04-05T09:47:16.593Z,23.27
2023-04-05T09:48:16.716Z,22.89
2023-04-05T09:49:16.791Z,22.94
2023-04-05T09:50:16.781Z,22.67
2023-04-05T09:51:16.765Z,22.55
2023-04-05T09:52:16.830Z,22.48
2023-04-05T09:53:16.846Z,22.13
2023-04-05T09:54:16.925Z,22.16
2023-04-05T09:55:16.920Z,22.27
2023-04-05T09:56:16.912Z,21.92
2023-04-05T09:57:16.936Z,21.93
2023-04-05T09:58:17.092Z,23.02
2023-04-05T09:59:17.113Z,22.91
2023-04-05T10:00:17.143Z,22.57
2023-04-05T10:01:17.634Z,22.61
2023-04-05T10:02:17.212Z,22.50
2023-04-05T10:03:17.266Z,22.79
2023-04-05T10:04:17.319Z,22.72
2023-04-05T10:05:17.291Z,22.45
2023-04-05T10:06:17.374Z,22.59
2023-04-05T10:07:17.403Z,22.42
2023-04-05T10:08:17.509Z,22.13
2023-04-05T10:09:17.422Z,22.13
2023-04-05T10:10:17.404Z,22.49
2023-04-05T10:11:17.426Z,22.41
2023-04-05T10:12:17.470Z,22.36
2023-04-05T10:13:17.533Z,23.01
2023-04-05T10:14:17.580Z,22.92
2023-04-05T10:15:17.606Z,22.68
2023-04-05T10:16:17.710Z,22.78
2023-04-05T10:17:17.701Z,22.62
2023-04-05T10:18:17.841Z,21.77
2023-04-05T10:19:17.807Z,22.01
2023-04-05T10:20:17.818Z,21.91
2023-04-05T10:21:17.821Z,22.02
2023-04-05T10:22:17.890Z,23.02
2023-04-05T10:23:17.926Z,22.59
2023-04-05T10:24:17.938Z,22.38
2023-04-05T10:25:17.954Z,22.01
2023-04-05T10:26:17.987Z,21.40
2023-04-05T10:27:18.063Z,21.25
2023-04-05T10:28:18.250Z,20.97
2023-04-05T10:29:18.138Z,21.19
2023-04-05T10:30:18.162Z,21.06
2023-04-05T10:31:30.514Z,21.06
2023-04-05T10:32:19.192Z,20.66
2023-04-05T10:33:18.264Z,20.75
2023-04-05T10:34:18.147Z,20.79
2023-04-05T10:35:18.179Z,21.26
2023-04-05T10:36:18.583Z,20.97
2023-04-05T10:37:18.125Z,20.33
2023-04-05T10:38:18.149Z,21.10
2023-04-05T10:39:18.142Z,20.83
2023-04-05T10:40:18.121Z,20.64
2023-04-05T10:41:18.133Z,20.55
2023-04-05T10:42:18.050Z,20.03
2023-04-05T10:43:18.087Z,19.81
2023-04-05T10:44:25.673Z,19.07
2023-04-05T10:45:19.093Z,19.28
2023-04-05T10:46:18.066Z,19.29
2023-04-05T10:47:18.637Z,19.73
2023-04-05T10:48:18.071Z,19.98
2023-04-05T10:49:18.083Z,20.15
2023-04-05T10:50:18.061Z,19.97
2023-04-05T10:51:18.052Z,20.58
2023-04-05T10:52:18.076Z,20.94
2023-04-05T10:53:18.009Z,21.47
2023-04-05T10:54:18.029Z,21.53
2023-04-05T10:55:18.024Z,22.15
2023-04-05T10:56:18.130Z,21.70
2023-04-05T10:57:17.995Z,21.58
2023-04-05T10:58:18.072Z,21.26
2023-04-05T10:59:18.135Z,21.13
2023-04-05T11:00:18.076Z,21.02
2023-04-05T11:01:18.166Z,20.17
2023-04-05T11:02:18.228Z,20.43
2023-04-05T11:03:18.194Z,20.61
2023-04-05T11:04:18.214Z,18.65
2023-04-05T11:05:18.573Z,18.69
2023-04-05T11:06:18.215Z,19.22
2023-04-05T11:07:18.201Z,18.97
2023-04-05T11:08:18.272Z,19.73
2023-04-05T11:09:18.254Z,19.58
2023-04-05T11:10:18.260Z,19.42
2023-04-05T11:11:18.356Z,19.31
2023-04-05T11:12:18.345Z,19.22
2023-04-05T11:13:18.386Z,18.67
2023-04-05T11:14:18.522Z,18.95
2023-04-05T11:15:18.413Z,18.72
2023-04-05T11:16:18.609Z,19.58
2023-04-05T11:17:18.520Z,19.76
2023-04-05T11:18:18.678Z,20.14
2023-04-05T11:19:18.718Z,20.10
2023-04-05T11:20:18.668Z,20.04
2023-04-05T11:21:18.958Z,21.04
2023-04-05T11:22:18.784Z,20.34
2023-04-05T11:23:18.953Z,19.97
2023-04-05T11:24:18.920Z,20.46
2023-04-05T11:25:18.934Z,20.11
2023-04-05T11:26:18.940Z,20.72
2023-04-05T11:27:18.926Z,20.56
2023-04-05T11:28:18.922Z,20.33
2023-04-05T11:29:18.949Z,19.99
2023-04-05T11:30:18.985Z,19.82
2023-04-05T11:31:19.246Z,19.59
2023-04-05T11:32:20.061Z,19.45
2023-04-05T11:33:19.068Z,19.53
2023-04-05T11:34:19.136Z,19.39
2023-04-05T11:35:19.115Z,19.28
2023-04-05T11:36:19.180Z,19.65
2023-04-05T11:37:19.182Z,19.26
2023-04-05T11:38:19.196Z,19.47
2023-04-05T11:39:19.259Z,19.41
2023-04-05T11:40:19.290Z,19.06
2023-04-05T11:41:19.318Z,19.63
2023-04-05T11:42:19.318Z,19.55
2023-04-05T11:43:19.321Z,19.47
2023-04-05T11:44:19.329Z,19.69
2023-04-05T11:45:19.319Z,19.37
2023-04-05T11:46:19.415Z,19.15
2023-04-05T11:47:19.391Z,18.60
2023-04-05T11:48:19.376Z,18.28
2023-04-05T11:49:19.423Z,18.22
2023-04-05T11:50:19.449Z,17.71
2023-04-05T11:51:19.548Z,17.46
2023-04-05T11:52:19.458Z,17.26
2023-04-05T11:53:19.615Z,17.32
2023-04-05T11:54:19.644Z,17.43
2023-04-05T11:55:19.643Z,17.93
2023-04-05T11:56:19.632Z,17.75
2023-04-05T11:57:19.724Z,17.83
2023-04-05T11:58:19.801Z,17.97
2023-04-05T11:59:19.808Z,17.62
2023-04-05T12:00:19.826Z,17.67
2023-04-05T12:01:21.701Z,17.53
2023-04-05T12:02:19.925Z,17.35
2023-04-05T12:03:20.000Z,17.42
2023-04-05T12:04:19.983Z,18.03
2023-04-05T12:05:20.018Z,18.41
2023-04-05T12:06:19.985Z,18.22
2023-04-05T12:07:20.091Z,18.63
2023-04-05T12:08:20.074Z,18.62
2023-04-05T12:09:20.107Z,18.56
2023-04-05T12:10:20.101Z,18.77
2023-04-05T12:11:20.151Z,18.53
2023-04-05T12:12:20.168Z,18.73
2023-04-05T12:13:20.216Z,18.43
2023-04-05T12:14:20.234Z,18.50
2023-04-05T12:15:20.270Z,18.81
2023-04-05T12:16:20.476Z,19.02
2023-04-05T12:17:20.364Z,19.22
2023-04-05T12:18:20.371Z,18.75
2023-04-05T12:19:20.436Z,18.75
2023-04-05T12:20:20.400Z,18.77
2023-04-05T12:21:20.460Z,19.50
2023-04-05T12:22:20.455Z,19.75
2023-04-05T12:23:20.519Z,20.13
2023-04-05T12:24:20.563Z,19.87
2023-04-05T12:25:20.601Z,20.03
2023-04-05T12:26:20.618Z,19.45
2023-04-05T12:27:20.747Z,19.32
2023-04-05T12:28:20.758Z,19.34
2023-04-05T12:29:20.767Z,18.78
2023-04-05T12:30:20.898Z,18.66
2023-04-05T12:31:20.799Z,18.80
2023-04-05T12:32:22.664Z,18.70
2023-04-05T12:34:48.577Z,19.37
2023-04-05T12:35:41.077Z,19.46
2023-04-05T12:36:40.913Z,19.75
2023-04-05T12:37:40.917Z,19.87
2023-04-05T12:38:40.909Z,19.73
2023-04-05T12:39:40.958Z,19.47
2023-04-05T12:40:40.904Z,19.46
2023-04-05T12:41:40.902Z,19.09
2023-04-05T12:42:40.926Z,19.41
2023-04-05T12:43:40.877Z,19.65
2023-04-05T12:44:40.964Z,19.43
2023-04-05T12:45:41.617Z,18.91
2023-04-05T12:46:40.871Z,18.96
2023-04-05T12:47:40.948Z,18.77
2023-04-05T12:48:40.853Z,18.90
2023-04-05T12:49:40.873Z,18.85
2023-04-05T12:50:40.847Z,19.23
2023-04-05T12:51:40.910Z,19.43
2023-04-05T12:52:40.791Z,19.57
2023-04-05T12:53:40.804Z,20.07
2023-04-05T12:54:40.825Z,20.02
2023-04-05T12:55:40.867Z,19.89